Time;durP1;ratioP1;P1;durP2;ratioP2;P2;SDS_P1;SDS_P2;PMS_P1;PMS_P2;Temp;Humidity;BMP_temperature;BMP_pressure;BME280_temperature;BME280_humidity;BME280_pressure;Samples;Min_cycle;Max_cycle;Signal;HPM_P1;HPM_P2
2023/09/10 03:03:20;;;;;;;21.23;12.00;;;;;;;14.05;72.29;100300.53;5776849;23;20023;31
2023/09/10 03:05:50;;;;;;;18.60;12.82;;;;;;;13.49;72.81;100222.16;4839711;29;20060;-96
2023/09/10 03:18:15;;;;;;;18.45;12.43;;;;;;;13.47;74.96;100306.00;4998462;23;20056;-96
2023/09/10 04:13:23;;;;;;;24.10;14.88;;;;;;;14.07;73.74;100305.72;1280255;23;20463;-93
2023/09/10 04:15:53;;;;;;;22.05;14.52;;;;;;;13.63;73.68;100246.84;4894636;23;20134;-94
2023/09/10 04:18:23;;;;;;;23.15;14.68;;;;;;;13.63;74.29;100266.09;4851783;23;20054;-92
2023/09/10 04:33:33;;;;;;;23.60;15.07;;;;;;;14.03;73.55;100316.53;5040624;23;20048;-94
2023/09/10 04:42:11;;;;;;;19.15;13.38;;;;;;;13.76;73.41;100264.41;5384833;23;20039;-93
2023/09/10 04:47:44;;;;;;;22.85;14.25;;;;;;;13.73;73.52;100267.78;5090487;23;20514;-92
2023/09/10 04:50:12;;;;;;;24.08;13.43;;;;;;;13.67;73.63;100263.53;4905104;29;20087;-96
2023/09/10 04:52:46;;;;;;;23.67;14.70;;;;;;;13.64;73.66;100256.69;5020196;23;20060;-96
2023/09/10 04:56:04;;;;;;;23.35;14.00;;;;;;;14.09;73.58;100330.97;4879439;29;20045;-93
2023/09/10 04:58:42;;;;;;;25.27;15.07;;;;;;;13.96;74.00;100323.59;4848121;29;20508;-93
2023/09/10 05:01:58;;;;;;;24.38;15.57;;;;;;;13.99;74.08;100317.47;4867457;23;20094;31
2023/09/10 07:36:21;;;;;;;36.50;21.23;;;;;;;14.99;69.45;100336.41;4822654;29;20137;-92
2023/09/10 07:39:34;;;;;;;38.42;22.25;;;;;;;14.99;69.31;100339.16;5002854;23;20152;-93
2023/09/10 07:42:04;;;;;;;49.70;27.00;;;;;;;14.61;69.47;100273.56;4898554;29;20522;-91
2023/09/10 07:45:05;;;;;;;38.55;23.15;;;;;;;15.08;68.97;100344.72;4863983;29;20116;-90
2023/09/10 07:48:47;;;;;;;;;;;;;;;;;;;;;
2023/09/10 07:52:32;;;;;;;36.13;22.38;;;;;;;14.82;68.94;100298.59;4939095;23;20106;-92
2023/09/10 07:55:50;;;;;;;42.83;21.52;;;;;;;14.82;69.19;100287.59;4927621;23;20160;-92
2023/09/10 08:04:55;;;;;;;50.28;23.33;;;;;;;14.82;68.94;100282.09;4842211;29;20144;-95
2023/09/10 08:20:39;;;;;;;40.42;20.88;;;;;;;15.01;68.04;100312.13;4927960;23;20120;-92
2023/09/10 08:30:27;;;;;;;36.45;20.33;;;;;;;15.33;67.58;100329.38;5002240;23;20059;31
2023/09/10 08:39:25;;;;;;;38.85;20.40;;;;;;;15.16;67.07;100269.56;4841341;23;1743870;-90
2023/09/10 08:42:24;;;;;;;40.28;21.00;;;;;;;15.60;66.68;100320.06;4896538;24;20085;-92
2023/09/10 08:45:16;;;;;;;37.65;21.60;;;;;;;15.56;66.71;100324.59;4861376;29;20080;-91
2023/09/10 08:54:29;;;;;;;32.45;21.17;;;;;;;15.11;66.50;100258.69;4921473;29;20438;-89
2023/09/10 08:57:10;;;;;;;33.75;20.02;;;;;;;15.49;67.01;100325.06;4878479;29;20040;-95
2023/09/10 08:59:39;;;;;;;33.70;21.17;;;;;;;15.17;67.51;100260.97;4910268;29;20053;-91
2023/09/10 09:02:43;;;;;;;43.70;19.52;;;;;;;15.64;67.03;100316.34;4898497;29;20041;-95
2023/09/10 10:20:44;;;;;;;;;;;;;;;;;;;;;
2023/09/10 10:23:43;;;;;;;24.08;17.05;;;;;;;16.40;61.13;100208.22;5173632;23;20056;-91
2023/09/10 10:30:54;;;;;;;30.58;17.83;;;;;;;16.89;60.55;100271.41;4900629;29;20056;-92
2023/09/10 10:43:32;;;;;;;25.20;17.58;;;;;;;16.70;59.83;100183.44;4939085;23;20067;-91
2023/09/10 10:46:07;;;;;;;35.08;18.60;;;;;;;16.91;60.33;100211.09;4920213;29;20115;-92
2023/09/10 10:48:44;;;;;;;29.92;17.65;;;;;;;16.98;60.12;100214.16;4914432;29;20059;-86
2023/09/10 10:51:59;;;;;;;89.03;20.52;;;;;;;17.34;61.97;100237.66;4916009;29;20113;-91
2023/09/10 10:54:52;;;;;;;26.90;17.90;;;;;;;16.99;59.63;100176.31;4890024;29;20040;-89
2023/09/10 10:57:42;;;;;;;31.20;17.83;;;;;;;17.16;59.60;100180.91;4819133;29;20496;-89
2023/09/10 11:01:03;;;;;;;26.25;16.27;;;;;;;17.58;58.09;100248.88;4823161;29;20050;-95
2023/09/10 11:03:58;;;;;;;31.45;17.02;;;;;;;17.35;57.55;100209.69;4830178;29;20078;-91
2023/09/10 11:09:35;;;;;;;31.52;17.15;;;;;;;17.59;57.77;100200.72;4889154;29;20048;-93
2023/09/10 11:12:09;;;;;;;30.58;17.17;;;;;;;17.57;56.80;100177.31;4860236;29;20081;-93
2023/09/10 11:15:03;;;;;;;26.52;16.40;;;;;;;18.14;56.93;100233.91;4886306;29;20048;-92
2023/09/10 11:20:50;;;;;;;28.63;16.45;;;;;;;18.00;57.35;100188.00;4809083;29;20058;-92
2023/09/10 11:27:21;;;;;;;27.83;16.60;;;;;;;18.11;57.92;100165.41;4849296;29;20094;-86
2023/09/10 11:30:13;;;;;;;45.33;17.10;;;;;;;18.72;55.78;100218.13;4812778;29;20125;-90
2023/09/10 11:33:49;;;;;;;26.60;16.55;;;;;;;18.71;56.54;100173.00;4835691;29;20080;-90
2023/09/10 11:36:16;;;;;;;27.52;16.98;;;;;;;18.85;55.00;100188.47;4829701;29;20138;-85
2023/09/10 11:42:18;;;;;;;33.92;16.50;;;;;;;18.60;53.83;100171.00;4766482;30;20068;-90
2023/09/10 11:44:44;;;;;;;28.58;18.02;;;;;;;18.82;54.28;100214.91;4738055;30;20052;-87
2023/09/10 11:47:14;;;;;;;29.27;17.43;;;;;;;18.73;54.43;100184.53;4766161;30;20051;-87
2023/09/10 11:50:23;;;;;;;31.42;15.43;;;;;;;19.40;54.79;100196.13;4773699;30;20046;-91
2023/09/10 11:53:06;;;;;;;51.10;15.68;;;;;;;20.47;52.90;100131.63;4687953;30;20069;-91
2023/09/10 11:55:32;;;;;;;36.13;15.52;;;;;;;21.08;49.55;100197.00;4735814;30;20052;-86
2023/09/10 11:57:58;;;;;;;31.20;15.80;;;;;;;20.59;49.37;100164.88;4770821;30;20832;-88
2023/09/10 12:00:24;;;;;;;39.53;19.00;;;;;;;20.11;49.99;100188.22;4762902;30;20301;-84
2023/09/10 12:02:51;;;;;;;29.30;14.98;;;;;;;20.48;51.91;100174.88;4769452;30;20142;-87
2023/09/10 12:28:38;;;;;;;34.58;17.40;;;;;;;20.85;51.50;100149.59;5162223;23;20083;-86
2023/09/10 12:31:14;;;;;;;;;;;;;;;;;;;;;
2023/09/10 12:33:51;;;;;;;41.33;18.45;;;;;;;20.62;51.13;100130.00;4899610;29;19924;-91
2023/09/10 12:36:33;;;;;;;33.30;17.75;;;;;;;20.55;49.97;100154.84;4928913;29;20048;-94
2023/09/10 12:39:00;;;;;;;30.35;16.55;;;;;;;20.24;50.74;100134.22;4902685;29;20036;-91
2023/09/10 12:41:27;;;;;;;26.67;16.08;;;;;;;20.19;51.86;100118.63;4894352;29;20467;-88
2023/09/10 12:44:09;;;;;;;35.13;18.27;;;;;;;20.02;50.04;100109.84;4906797;29;20067;-89
2023/09/10 12:46:36;;;;;;;35.67;17.25;;;;;;;20.22;51.61;100142.09;4897463;29;20032;-89
2023/09/10 12:49:19;;;;;;;31.25;17.73;;;;;;;20.16;52.44;100118.53;4918974;29;20055;-88
2023/09/10 12:51:46;;;;;;;30.90;18.70;;;;;;;20.12;52.15;100095.44;4930807;29;20052;-90
2023/09/10 12:54:14;;;;;;;39.30;18.33;;;;;;;20.39;51.83;100143.72;4903049;29;20036;-92
2023/09/10 12:56:42;;;;;;;36.80;18.33;;;;;;;20.34;51.86;100135.66;4909515;29;20055;-90
2023/09/10 12:59:31;;;;;;;32.67;19.08;;;;;;;19.97;51.70;100097.06;4896164;29;20048;-92
2023/09/10 13:02:57;;;;;;;34.05;18.75;;;;;;;20.20;52.04;100136.13;4850166;29;20085;-91
2023/09/10 13:05:28;;;;;;;39.00;21.55;;;;;;;20.00;52.10;100114.94;4886832;29;20049;-89
2023/09/10 13:07:55;;;;;;;40.33;21.58;;;;;;;19.93;53.19;100138.59;4856172;29;20109;-89
2023/09/10 13:10:49;;;;;;;37.28;20.75;;;;;;;19.88;54.03;100135.28;4837866;29;20080;-89
2023/09/10 13:13:15;;;;;;;37.72;19.30;;;;;;;19.75;54.26;100115.09;4839984;29;20167;-88
2023/09/10 13:20:53;;;;;;;49.85;19.38;;;;;;;20.29;52.87;100133.16;4889021;29;20060;-89
2023/09/10 13:23:19;;;;;;;27.95;18.63;;;;;;;20.21;52.76;100115.50;4835387;29;20046;-91
2023/09/10 13:25:56;;;;;;;38.83;20.67;;;;;;;19.93;52.84;100076.72;4899452;23;20086;-90
2023/09/10 13:29:29;;;;;;;31.90;19.23;;;;;;;20.29;53.16;100122.84;4892153;29;20485;-88
2023/09/10 13:31:55;;;;;;;38.10;19.52;;;;;;;20.03;53.55;100120.59;4910916;29;20048;-88
2023/09/10 13:34:37;;;;;;;46.88;18.67;;;;;;;19.93;54.17;100093.38;4931863;29;20054;-92
2023/09/10 13:37:07;;;;;;;38.17;19.38;;;;;;;19.86;54.56;100088.44;4931436;29;20107;-89
2023/09/10 13:39:43;;;;;;;33.85;21.50;;;;;;;19.76;53.70;100115.91;4857634;29;20052;-88
2023/09/10 13:42:51;;;;;;;28.80;19.75;;;;;;;19.81;54.47;100135.09;4859106;29;20090;-92
2023/09/10 13:45:36;;;;;;;44.13;20.33;;;;;;;19.64;54.59;100116.78;4843163;29;20056;-89
2023/09/10 13:48:04;;;;;;;34.67;20.30;;;;;;;19.51;54.56;100091.06;4854753;29;20054;-90
2023/09/10 13:50:52;;;;;;;38.05;20.40;;;;;;;19.63;54.95;100112.34;4839719;29;20042;-89
2023/09/10 13:53:28;;;;;;;37.95;21.55;;;;;;;19.79;55.48;100131.84;4819284;29;20116;-90
2023/09/10 13:56:06;;;;;;;37.55;21.50;;;;;;;19.45;55.19;100076.63;4784913;29;20050;-90
2023/09/10 14:01:34;;;;;;;35.55;19.95;;;;;;;19.40;55.06;100103.78;1329781;27;20821;-90
2023/09/10 14:05:07;;;;;;;40.75;20.38;;;;;;;19.36;55.44;100122.31;4893035;29;20113;-89
2023/09/10 14:08:36;;;;;;;46.75;21.23;;;;;;;19.28;56.13;100121.31;4867888;29;20049;-88
2023/09/10 14:11:30;;;;;;;30.85;20.65;;;;;;;19.17;55.91;100111.84;4843791;29;20057;-90
2023/09/10 14:14:31;;;;;;;47.65;20.08;;;;;;;18.51;56.37;100049.31;4877911;29;20049;-90
2023/09/10 14:17:23;;;;;;;38.33;20.58;;;;;;;18.99;57.25;100114.91;4861396;29;20553;-88
2023/09/10 14:19:55;;;;;;;39.35;22.38;;;;;;;18.67;57.11;100068.75;4887932;29;20040;-90
2023/09/10 14:22:24;;;;;;;38.40;20.40;;;;;;;18.84;56.97;100093.47;4889600;29;20057;-89
2023/09/10 14:25:29;;;;;;;39.40;20.58;;;;;;;18.77;57.89;100082.16;4888495;29;20040;-91
2023/09/10 15:18:00;;;;;;;65.05;29.45;;;;;;;17.18;63.59;100099.28;4858503;29;20468;-90
2023/09/10 15:20:27;;;;;;;69.28;31.25;;;;;;;17.31;64.35;100111.19;4795990;29;20078;-89
2023/09/10 15:29:03;;;;;;;87.60;36.08;;;;;;;16.88;64.86;100088.28;4796388;29;20058;-89
2023/09/10 15:31:35;;;;;;;63.17;33.42;;;;;;;16.93;65.21;100103.88;4805893;29;20092;-88
2023/09/10 15:34:11;;;;;;;89.95;33.95;;;;;;;16.86;65.49;100118.22;4791503;29;20055;-89
2023/09/10 15:36:41;;;;;;;80.10;30.63;;;;;;;16.62;65.61;100090.41;4790587;29;20639;-89
2023/09/10 15:39:11;;;;;;;58.28;30.63;;;;;;;16.57;65.86;100094.19;4803063;29;20061;-89
2023/09/10 15:44:57;;;;;;;59.55;28.52;;;;;;;16.26;66.50;100060.56;4807440;29;20056;-90
2023/09/10 15:47:30;;;;;;;54.93;29.83;;;;;;;16.32;67.02;100092.34;4786003;29;20569;-91
2023/09/10 15:50:23;;;;;;;75.93;38.13;;;;;;;15.97;67.21;100045.63;4790763;30;20047;-89
2023/09/10 15:53:09;;;;;;;60.83;33.13;;;;;;;15.88;67.48;100042.91;4765696;30;20031;-89
2023/09/10 15:55:44;;;;;;;63.85;34.60;;;;;;;16.02;67.62;100084.06;4784140;29;20127;-88
2023/09/10 15:58:10;;;;;;;62.58;36.30;;;;;;;15.98;68.13;100094.94;4812387;29;20056;-89
2023/09/10 16:00:40;;;;;;;63.65;36.58;;;;;;;15.67;68.34;100056.63;4779681;29;20024;-89
2023/09/10 16:04:08;;;;;;;69.40;35.90;;;;;;;15.95;68.91;100114.09;4780639;29;20054;-96
2023/09/10 16:06:45;;;;;;;70.00;32.90;;;;;;;15.71;68.83;100084.34;4818873;29;20049;-90
2023/09/10 16:09:21;;;;;;;97.82;34.28;;;;;;;15.75;68.70;100096.31;4836126;29;20110;-89
2023/09/10 16:11:59;;;;;;;81.75;33.13;;;;;;;15.64;68.92;100084.81;4830255;29;20053;-88
2023/09/10 16:14:37;;;;;;;70.53;35.58;;;;;;;15.55;69.25;100083.19;4814800;29;20111;-91
2023/09/10 16:17:06;;;;;;;81.10;44.45;;;;;;;15.35;69.50;100065.41;4824286;29;20058;-90
2023/09/10 16:20:23;;;;;;;57.83;33.85;;;;;;;15.54;69.48;100100.88;4822259;29;20047;-91
2023/09/10 16:26:36;;;;;;;53.28;28.98;;;;;;;15.02;70.46;100061.22;4760806;27;20496;-87
2023/09/10 16:29:04;;;;;;;56.30;29.13;;;;;;;15.06;70.83;100071.59;4837373;29;20061;-91
2023/09/10 16:31:45;;;;;;;75.97;32.42;;;;;;;15.20;70.70;100114.38;4829871;29;20064;-89
2023/09/10 16:34:23;;;;;;;80.07;36.97;;;;;;;14.96;70.54;100087.28;4834743;29;20040;-92
2023/09/10 16:40:49;;;;;;;64.93;36.97;;;;;;;15.03;71.82;100106.06;4936841;23;20047;-93
2023/09/10 16:43:47;;;;;;;85.20;41.35;;;;;;;15.00;71.62;100107.56;4874347;29;20047;-89
2023/09/10 16:46:15;;;;;;;78.90;41.92;;;;;;;14.70;71.41;100064.44;4888049;29;20072;-90
2023/09/10 16:48:41;;;;;;;100.03;43.47;;;;;;;14.80;71.47;100095.22;4881538;29;20092;-90
2023/09/10 16:51:23;;;;;;;94.78;44.70;;;;;;;14.61;71.26;100066.38;4881112;29;20049;-92
2023/09/10 16:54:49;;;;;;;100.25;47.80;;;;;;;14.89;71.88;100119.19;4882570;29;20040;-95
2023/09/10 16:57:15;;;;;;;106.15;48.83;;;;;;;14.57;72.17;100074.47;4886605;29;20056;-90
2023/09/10 16:59:52;;;;;;;98.40;48.05;;;;;;;14.37;72.41;100059.34;4863213;29;20072;-90
2023/09/10 17:02:21;;;;;;;77.35;40.70;;;;;;;14.57;72.41;100091.00;4882693;29;20352;-90
2023/09/10 17:04:56;;;;;;;73.00;36.63;;;;;;;14.64;72.91;100121.59;4844949;29;20048;-92
2023/09/10 17:07:27;;;;;;;;;;;;;;;14.57;73.54;100111.06;4841781;29;20047;-90
2023/09/10 17:10:20;;;;;;;65.22;34.08;;;;;;;14.06;73.64;100051.97;4890963;29;20006;-90
2023/09/10 17:12:49;;;;;;;62.15;35.28;;;;;;;14.23;73.61;100072.41;4876601;29;20054;-92
2023/09/10 17:15:18;;;;;;;62.22;34.28;;;;;;;14.45;73.88;100113.56;4870608;29;20081;-91
2023/09/10 17:17:46;;;;;;;79.75;33.67;;;;;;;14.15;73.74;100082.25;4870902;29;20123;-89
2023/09/10 17:20:31;;;;;;;108.97;35.13;;;;;;;14.33;74.05;100113.38;4870500;29;20528;-90
2023/09/10 17:23:02;;;;;;;66.40;35.03;;;;;;;14.16;74.04;100091.31;4904279;29;20041;-90
2023/09/10 17:25:35;;;;;;;72.65;36.60;;;;;;;14.27;74.19;100115.47;4869471;29;20836;-89
2023/09/10 17:28:27;;;;;;;63.70;33.50;;;;;;;14.32;74.32;100112.56;4866466;29;20045;-90
2023/09/10 17:33:41;;;;;;;63.55;33.75;;;;;;;13.90;74.69;100055.47;4945849;23;20060;-92
2023/09/10 17:36:46;;;;;;;65.07;35.10;;;;;;;14.22;74.66;100112.84;4870406;29;20060;-93
2023/09/10 17:45:27;;;;;;;;;;;;;;;;;;;;;
2023/09/10 17:48:32;;;;;;;67.88;34.65;;;;;;;13.82;75.18;100081.78;4891928;29;20044;-88
2023/09/10 17:51:27;;;;;;;69.18;36.25;;;;;;;14.06;75.03;100120.69;4886423;29;20042;-88
2023/09/10 17:54:03;;;;;;;67.72;35.08;;;;;;;13.93;75.12;100104.31;4902177;29;20068;-89
2023/09/10 17:57:26;;;;;;;76.73;36.23;;;;;;;13.99;75.58;100114.03;4891507;29;20092;-88
2023/09/10 18:01:27;;;;;;;65.32;31.30;;;;;;;13.44;75.49;100045.69;4831789;29;20129;-93
2023/09/10 18:04:10;;;;;;;122.47;60.83;;;;;;;13.89;75.65;100120.63;4804072;29;20054;-90
2023/09/10 18:07:00;;;;;;;106.78;52.05;;;;;;;13.48;75.67;100064.00;4805125;29;20106;-89
2023/09/10 18:09:53;;;;;;;196.55;85.28;;;;;;;13.84;75.87;100126.22;4826514;29;20065;-91
2023/09/10 18:13:26;;;;;;;105.45;50.60;;;;;;;13.70;76.06;100103.53;4836704;29;20058;-87
2023/09/10 18:15:56;;;;;;;91.60;45.88;;;;;;;13.58;75.91;100088.44;4822030;29;20094;-89
2023/09/10 18:18:28;;;;;;;91.22;46.20;;;;;;;13.40;76.25;100059.22;4809273;29;20507;-89
2023/09/10 18:21:10;;;;;;;84.05;42.78;;;;;;;13.43;76.31;100066.03;4818925;29;20061;-88
2023/09/10 18:23:50;;;;;;;81.97;40.80;;;;;;;13.62;75.89;100096.88;4801509;29;20091;-95
2023/09/10 18:26:19;;;;;;;79.32;38.47;;;;;;;13.49;76.09;100082.09;4796829;29;20162;-92
2023/09/10 18:28:50;;;;;;;75.82;38.85;;;;;;;13.25;75.76;100046.72;4812577;29;20050;-86
2023/09/10 18:32:09;;;;;;;69.78;35.60;;;;;;;13.67;76.32;100126.13;4806872;29;20184;-93
2023/09/10 18:34:56;;;;;;;68.28;34.90;;;;;;;13.48;76.42;100088.72;4844930;29;20052;-93
2023/09/10 18:37:32;;;;;;;63.42;34.15;;;;;;;13.15;76.33;100042.25;4857719;29;20097;-93
2023/09/10 18:40:00;;;;;;;64.78;34.28;;;;;;;13.40;76.59;100083.94;4871006;29;20088;-93
2023/09/10 18:49:01;;;;;;;71.75;38.10;;;;;;;13.46;76.80;100115.66;4898499;29;20043;-93
2023/09/10 18:52:06;;;;;;;70.93;33.43;;;;;;;13.46;77.42;100123.91;4835975;29;20058;-93
2023/09/10 18:54:44;;;;;;;67.72;34.92;;;;;;;13.30;77.29;100096.00;4830358;29;20057;-88
2023/09/10 18:57:13;;;;;;;66.68;34.50;;;;;;;13.16;76.92;100087.00;4790869;29;20050;-96
2023/09/10 19:00:09;;;;;;;67.18;33.47;;;;;;;13.12;77.16;100077.75;4828668;29;20046;-94
2023/09/10 19:02:39;;;;;;;66.30;35.30;;;;;;;13.18;77.21;100093.00;4876733;23;20143;-90
2023/09/10 19:06:08;;;;;;;72.57;36.17;;;;;;;13.34;77.84;100120.91;4877965;29;20043;-92
2023/09/10 19:08:41;;;;;;;71.70;36.33;;;;;;;13.33;77.73;100116.53;4868214;29;20040;-88
2023/09/10 19:11:24;;;;;;;79.80;37.67;;;;;;;13.01;77.71;100070.88;4896289;29;20055;-90
2023/09/10 19:13:51;;;;;;;74.32;36.58;;;;;;;13.13;77.60;100106.81;4891027;29;20040;-91
2023/09/10 19:16:19;;;;;;;86.30;39.13;;;;;;;13.28;77.93;100133.16;4906814;29;20076;-91
2023/09/10 19:19:00;;;;;;;81.05;41.42;;;;;;;13.20;78.15;100128.34;4888486;29;20324;-92
2023/09/10 19:21:38;;;;;;;75.88;40.08;;;;;;;13.00;78.12;100093.97;4896772;29;20048;-92
2023/09/10 19:24:18;;;;;;;69.28;38.22;;;;;;;12.85;78.17;100082.22;4913738;29;20063;-93
2023/09/10 19:26:55;;;;;;;73.10;38.33;;;;;;;12.77;79.13;100060.19;4887399;29;20549;-87
2023/09/10 19:29:34;;;;;;;74.20;38.67;;;;;;;12.78;78.42;100075.50;4911508;29;20033;-87
2023/09/10 19:32:03;;;;;;;68.70;36.45;;;;;;;12.78;78.58;100070.03;4931070;23;20056;-93
2023/09/10 19:34:29;;;;;;;72.95;38.17;;;;;;;13.00;78.61;100115.91;4891633;29;20048;-87
2023/09/10 19:36:58;;;;;;;77.57;39.17;;;;;;;12.68;78.98;100054.59;4922036;29;20044;-92
2023/09/10 19:39:49;;;;;;;66.10;36.00;;;;;;;13.05;78.70;100119.38;4888011;29;20044;-91
2023/09/10 19:42:34;;;;;;;67.15;36.58;;;;;;;12.73;78.75;100073.72;4890488;29;20402;-90
2023/09/10 19:45:05;;;;;;;73.00;35.72;;;;;;;12.56;79.08;100043.38;4890873;29;20051;-86
2023/09/10 19:47:32;;;;;;;70.70;36.50;;;;;;;12.77;78.93;100084.88;4911071;29;20079;-90
2023/09/10 19:50:15;;;;;;;71.53;36.70;;;;;;;12.80;78.83;100087.81;4909319;29;20044;-86
2023/09/10 19:52:47;;;;;;;68.10;34.67;;;;;;;12.84;78.75;100090.75;4909814;29;20036;-88
2023/09/10 19:55:38;;;;;;;66.75;36.42;;;;;;;13.03;78.91;100112.56;4922598;29;20048;-89
2023/09/10 19:58:04;;;;;;;66.78;35.92;;;;;;;12.92;78.58;100101.00;4895134;29;20064;-89
2023/09/10 20:00:31;;;;;;;69.03;36.70;;;;;;;12.64;78.62;100070.06;4919266;29;20016;-93
2023/09/10 20:03:13;;;;;;;69.97;38.13;;;;;;;12.78;79.17;100087.31;4893069;29;20033;-90
2023/09/10 20:06:07;;;;;;;78.45;37.83;;;;;;;12.97;78.79;100105.56;4908051;23;20213;-94
2023/09/10 20:08:37;;;;;;;94.68;47.65;;;;;;;12.85;78.81;100093.19;4920736;29;20107;-90
2023/09/10 20:11:19;;;;;;;98.40;54.22;;;;;;;12.48;78.72;100035.88;4923134;23;20053;-89
2023/09/10 20:14:10;;;;;;;107.78;54.80;;;;;;;12.96;78.66;100107.50;4880925;23;20050;-89
2023/09/10 20:16:40;;;;;;;99.65;53.85;;;;;;;12.73;78.72;100067.41;4864127;29;20065;-92
2023/09/10 20:19:32;;;;;;;100.07;49.03;;;;;;;12.96;78.47;100104.75;4879924;29;20045;-87
2023/09/10 20:21:58;;;;;;;89.03;48.38;;;;;;;12.63;78.65;100052.78;4875668;29;20132;-90
2023/09/10 20:24:25;;;;;;;93.82;47.13;;;;;;;12.53;78.51;100041.25;4872779;29;20051;-88
2023/09/10 20:27:08;;;;;;;87.32;45.08;;;;;;;12.86;78.62;100083.03;4878794;29;20074;-89
2023/09/10 20:30:31;;;;;;;92.13;44.55;;;;;;;12.93;78.81;100095.19;4896368;23;20087;-89
2023/09/10 20:32:57;;;;;;;98.60;43.20;;;;;;;12.87;78.89;100082.69;4877762;29;20461;-89
2023/09/10 20:35:38;;;;;;;84.25;42.95;;;;;;;12.59;78.86;100049.06;4878084;29;20041;-95
2023/09/10 20:38:40;;;;;;;100.88;42.55;;;;;;;12.62;78.87;100040.22;4806738;29;20062;-91
2023/09/10 20:41:35;;;;;;;88.63;42.70;;;;;;;12.94;78.62;100085.03;4916401;23;20103;-88
2023/09/10 20:44:20;;;;;;;87.40;41.88;;;;;;;12.53;78.50;100030.28;4881243;29;20032;-92
2023/09/10 20:46:48;;;;;;;96.60;41.83;;;;;;;12.54;78.15;100029.97;4898292;29;20044;-93
2023/09/10 20:49:22;;;;;;;82.00;41.33;;;;;;;12.56;78.17;100054.34;4871081;29;20040;-92
2023/09/10 20:51:50;;;;;;;84.40;42.83;;;;;;;12.59;78.25;100049.06;4910799;29;20044;-88
2023/09/10 20:54:24;;;;;;;88.32;43.10;;;;;;;12.49;78.47;100029.28;4892188;29;20071;-89
2023/09/10 20:57:06;;;;;;;95.28;43.67;;;;;;;12.76;78.91;100064.06;4907601;29;20048;-92
2023/09/10 20:59:32;;;;;;;92.05;44.53;;;;;;;12.61;78.36;100044.06;4864451;29;20088;-87
2023/09/10 21:05:30;;;;;;;93.28;45.47;;;;;;;12.83;78.17;100081.72;4906154;29;20129;-94
2023/09/10 21:07:56;;;;;;;98.28;47.83;;;;;;;12.71;78.25;100059.47;4890250;29;20100;-88
2023/09/10 21:10:25;;;;;;;106.82;44.55;;;;;;;12.71;77.73;100056.72;4870716;29;20109;-88
2023/09/10 21:12:54;;;;;;;98.95;45.30;;;;;;;12.45;77.59;100020.84;4858127;29;20073;-89
2023/09/10 21:15:37;;;;;;;97.03;43.25;;;;;;;12.45;77.81;100020.84;4906482;23;20544;-88
2023/09/10 21:18:30;;;;;;;101.35;44.00;;;;;;;12.81;77.75;100086.69;4953217;23;20053;-89
